createdAt,value
2022-12-18T06:36:54.130Z,8.64
2022-12-18T06:39:22.125Z,8.60
2022-12-18T06:46:48.059Z,8.41
2022-12-18T06:49:18.091Z,8.55
2022-12-18T06:51:45.770Z,8.91
2022-12-18T06:54:15.066Z,9.15
2022-12-18T06:56:42.725Z,9.82
2022-12-18T06:59:10.416Z,9.28
2022-12-18T07:01:38.220Z,8.96
2022-12-18T07:04:05.996Z,8.74
2022-12-18T07:06:33.643Z,8.67
2022-12-18T07:09:03.595Z,8.69
2022-12-18T07:11:33.710Z,8.87
2022-12-18T07:14:01.391Z,9.71
2022-12-18T07:16:32.168Z,10.52
2022-12-18T07:18:59.854Z,11.14
2022-12-18T07:21:27.585Z,11.37
2022-12-18T07:23:55.291Z,11.47
2022-12-18T07:26:23.315Z,10.80
2022-12-18T07:28:51.078Z,10.47
2022-12-18T07:31:21.437Z,10.11
2022-12-18T07:33:49.715Z,9.96
2022-12-18T07:36:17.363Z,9.92
2022-12-18T07:38:48.127Z,9.94
2022-12-18T07:41:16.043Z,9.99
2022-12-18T07:43:44.122Z,10.04
2022-12-18T07:46:20.011Z,10.21
2022-12-18T07:48:49.779Z,10.24
2022-12-18T07:51:18.403Z,10.55
2022-12-18T07:53:46.136Z,10.44
2022-12-18T07:56:31.164Z,10.30
2022-12-18T07:59:00.108Z,11.08
2022-12-18T08:01:31.208Z,11.73
2022-12-18T08:03:59.494Z,11.04
2022-12-18T08:06:27.125Z,10.70
2022-12-18T08:08:58.089Z,10.63
2022-12-18T08:11:27.278Z,10.62
2022-12-18T08:13:54.975Z,10.64
2022-12-18T08:16:23.010Z,10.71
2022-12-18T08:18:53.136Z,10.68
2022-12-18T08:21:25.996Z,10.75
2022-12-18T08:23:54.602Z,10.93
2022-12-18T08:26:23.809Z,11.17
2022-12-18T08:28:51.850Z,11.24
2022-12-18T08:31:19.962Z,11.42
2022-12-18T08:33:52.671Z,11.49
2022-12-18T08:36:22.885Z,11.75
2022-12-18T08:38:51.056Z,11.94
2022-12-18T08:41:19.331Z,11.81
2022-12-18T08:44:06.855Z,12.20
2022-12-18T08:46:39.315Z,13.29
2022-12-18T08:49:07.735Z,13.55
2022-12-18T08:51:35.404Z,14.38
2022-12-18T08:54:03.468Z,13.99
2022-12-18T08:56:34.469Z,13.80
2022-12-18T08:59:02.219Z,13.61
2022-12-18T09:01:35.673Z,13.67
2022-12-18T09:04:03.612Z,13.98
2022-12-18T09:06:32.110Z,13.98
2022-12-18T09:08:59.863Z,14.34
2022-12-18T09:11:28.472Z,14.29
2022-12-18T09:13:56.688Z,13.73
2022-12-18T09:16:31.514Z,14.22
2022-12-18T09:19:03.055Z,14.44
2022-12-18T09:21:36.854Z,14.07
2022-12-18T09:24:07.053Z,14.14
2022-12-18T09:26:36.889Z,14.16
2022-12-18T09:29:04.919Z,13.36
2022-12-18T09:31:32.651Z,13.92
2022-12-18T09:34:00.278Z,14.04
2022-12-18T09:36:28.008Z,13.96
2022-12-18T09:38:55.824Z,13.71
2022-12-18T09:41:38.867Z,13.71
2022-12-18T09:44:12.637Z,13.85
2022-12-18T09:46:44.107Z,13.96
2022-12-18T09:49:17.337Z,14.05
2022-12-18T09:51:58.034Z,13.81
2022-12-18T09:54:27.843Z,14.29
2022-12-18T09:56:55.815Z,14.15
2022-12-18T09:59:28.403Z,14.20
2022-12-18T10:01:56.535Z,13.75
2022-12-18T10:04:25.708Z,13.87
2022-12-18T10:07:02.025Z,13.99
2022-12-18T10:10:09.027Z,14.05
2022-12-18T10:12:46.422Z,13.68
2022-12-18T10:15:20.240Z,13.75
2022-12-18T10:18:22.066Z,13.76
2022-12-18T10:20:51.517Z,13.83
2022-12-18T10:23:32.644Z,14.22
2022-12-18T10:26:02.475Z,14.44
2022-12-18T10:28:36.431Z,14.56
2022-12-18T10:31:06.941Z,14.77
2022-12-18T10:33:34.846Z,14.93
2022-12-18T10:36:02.876Z,15.05
2022-12-18T10:38:32.972Z,14.86
2022-12-18T10:41:21.797Z,14.86
2022-12-18T10:43:52.283Z,14.48
2022-12-18T10:46:23.022Z,14.59
2022-12-18T10:48:55.677Z,14.68
2022-12-18T10:51:31.405Z,14.75
2022-12-18T10:54:28.881Z,14.55
2022-12-18T10:57:15.483Z,14.42
2022-12-18T10:59:54.787Z,14.34
2022-12-18T11:02:36.058Z,14.68
2022-12-18T11:05:07.268Z,14.82
2022-12-18T11:07:50.498Z,14.45
2022-12-18T11:10:20.312Z,14.38
2022-12-18T11:12:48.339Z,14.53
2022-12-18T11:15:25.880Z,14.36
2022-12-18T11:17:53.613Z,14.68
2022-12-18T11:20:31.296Z,14.46
2022-12-18T11:23:06.735Z,14.28
2022-12-18T11:25:36.399Z,14.11
2022-12-18T11:28:06.337Z,13.88
2022-12-18T11:30:36.627Z,13.82
2022-12-18T11:33:15.929Z,13.88
2022-12-18T11:35:59.568Z,14.22
2022-12-18T11:38:35.602Z,14.83
2022-12-18T11:41:49.966Z,14.69
2022-12-18T11:44:30.433Z,14.18
2022-12-18T11:47:20.353Z,13.80
2022-12-18T11:49:50.435Z,13.81
2022-12-18T11:52:21.241Z,13.90
2022-12-18T11:54:52.413Z,14.26
2022-12-18T11:57:36.081Z,14.06
2022-12-18T12:00:12.864Z,14.30
2022-12-18T12:03:14.625Z,14.21
2022-12-18T12:06:06.856Z,14.15
2022-12-18T12:09:05.116Z,14.49
2022-12-18T12:11:45.282Z,14.40
2022-12-18T12:14:34.679Z,14.27
2022-12-18T12:17:10.587Z,14.33
2022-12-18T12:20:07.492Z,13.95
2022-12-18T12:22:42.793Z,13.93
2022-12-18T12:25:18.636Z,13.99
2022-12-18T12:28:10.243Z,13.82
2022-12-18T12:30:40.767Z,13.58
2022-12-18T12:33:23.642Z,13.52
2022-12-18T12:36:04.624Z,13.31
2022-12-18T12:38:49.817Z,13.32
2022-12-18T12:41:43.819Z,13.23
2022-12-18T12:44:18.363Z,13.25
2022-12-18T12:46:46.718Z,13.16
2022-12-18T12:49:16.786Z,13.08
2022-12-18T12:51:51.513Z,12.77
2022-12-18T12:54:22.580Z,12.59
2022-12-18T12:56:59.074Z,12.41
2022-12-18T12:59:39.560Z,12.22
2022-12-18T13:02:30.378Z,12.20
2022-12-18T13:05:02.357Z,12.22
2022-12-18T13:07:37.155Z,12.15
2022-12-18T13:10:31.378Z,12.21
2022-12-18T13:13:10.728Z,12.24
2022-12-18T13:15:42.728Z,12.25
2022-12-18T13:18:10.845Z,12.15
2022-12-18T13:20:52.243Z,12.10
2022-12-18T13:23:26.227Z,11.98
2022-12-18T13:25:58.135Z,11.89
2022-12-18T13:28:34.828Z,11.86
2022-12-18T13:31:02.799Z,11.84
2022-12-18T13:33:30.776Z,11.88
2022-12-18T13:36:14.785Z,11.96
2022-12-18T13:38:43.263Z,11.99
2022-12-18T13:41:14.484Z,11.98
2022-12-18T13:43:50.860Z,11.95
2022-12-18T13:46:21.713Z,12.01
2022-12-18T13:49:06.359Z,11.93
2022-12-18T13:51:34.905Z,11.87
2022-12-18T13:54:32.446Z,11.92
2022-12-18T13:57:00.223Z,11.91
2022-12-18T13:59:37.651Z,11.91
2022-12-18T14:02:15.571Z,11.82
2022-12-18T14:04:46.239Z,11.83
2022-12-18T14:07:19.504Z,11.81
2022-12-18T14:10:01.935Z,11.79
2022-12-18T14:12:59.181Z,11.89
2022-12-18T14:15:38.223Z,11.86
2022-12-18T14:18:35.060Z,11.78
2022-12-18T14:21:03.536Z,11.78
2022-12-18T14:23:35.849Z,11.77
2022-12-18T14:26:06.237Z,11.78
2022-12-18T14:28:36.304Z,11.75
2022-12-18T14:31:03.918Z,11.75
2022-12-18T14:33:31.592Z,11.68
2022-12-18T14:36:05.034Z,11.59
2022-12-18T14:38:36.257Z,11.59
2022-12-18T14:41:04.760Z,11.54
2022-12-18T14:43:37.750Z,11.51
2022-12-18T14:46:09.813Z,11.49
2022-12-18T14:48:43.838Z,11.44
2022-12-18T14:51:11.596Z,11.43
2022-12-18T14:53:41.883Z,11.40
2022-12-18T14:56:31.797Z,11.34
2022-12-18T14:59:04.560Z,11.31
2022-12-18T15:01:46.534Z,11.28
2022-12-18T15:04:37.034Z,11.20
2022-12-18T15:07:08.085Z,11.13
2022-12-18T15:09:38.076Z,11.10
2022-12-18T15:12:27.359Z,11.10
2022-12-18T15:14:55.046Z,11.09
2022-12-18T15:17:24.137Z,11.06
2022-12-18T15:19:54.965Z,11.06
2022-12-18T15:22:29.591Z,11.04
2022-12-18T15:24:58.436Z,11.01
2022-12-18T15:27:41.600Z,10.97
2022-12-18T15:30:09.220Z,10.85
2022-12-18T15:32:37.757Z,10.76
2022-12-18T15:35:15.597Z,10.71
2022-12-18T15:37:43.566Z,10.70
2022-12-18T15:40:18.525Z,10.69
2022-12-18T15:43:08.628Z,10.73
2022-12-18T15:45:36.595Z,10.74
2022-12-18T15:48:21.971Z,10.70
2022-12-18T15:50:53.457Z,10.69
2022-12-18T15:53:24.708Z,10.68
2022-12-18T15:56:10.841Z,10.65
2022-12-18T15:58:38.615Z,10.62
2022-12-18T16:01:06.419Z,10.61
2022-12-18T16:03:34.554Z,10.55
2022-12-18T16:06:04.119Z,10.50
2022-12-18T16:08:32.156Z,10.48
2022-12-18T16:10:59.922Z,10.54
